createdAt,value
2019-02-25T00:00:33.986Z,3.91
2019-02-25T00:01:33.975Z,3.95
2019-02-25T00:02:33.964Z,3.88
2019-02-25T00:03:33.954Z,3.83
2019-02-25T00:04:33.942Z,3.96
2019-02-25T00:05:33.932Z,3.88
2019-02-25T00:06:33.921Z,3.87
2019-02-25T00:07:33.909Z,3.84
2019-02-25T00:08:33.898Z,3.83
2019-02-25T00:09:33.887Z,3.77
2019-02-25T00:10:33.877Z,3.73
2019-02-25T00:11:33.863Z,3.76
2019-02-25T00:12:33.853Z,3.80
2019-02-25T00:13:33.844Z,3.77
2019-02-25T00:14:33.831Z,3.77
2019-02-25T00:15:33.820Z,3.76
2019-02-25T00:16:33.810Z,3.66
2019-02-25T00:17:33.798Z,3.76
2019-02-25T00:18:33.785Z,3.74
2019-02-25T00:19:33.776Z,3.73
2019-02-25T00:20:33.764Z,3.73
2019-02-25T00:21:33.753Z,3.78
2019-02-25T00:22:33.741Z,3.74
2019-02-25T00:23:33.732Z,3.70
2019-02-25T00:24:33.723Z,3.77
2019-02-25T00:25:33.709Z,3.62
2019-02-25T00:26:33.698Z,3.60
2019-02-25T00:27:33.685Z,3.66
2019-02-25T00:28:33.674Z,3.62
2019-02-25T00:29:33.669Z,3.59
2019-02-25T00:30:33.650Z,3.60
2019-02-25T00:31:33.640Z,3.56
2019-02-25T00:32:33.632Z,3.62
2019-02-25T00:33:33.619Z,3.63
2019-02-25T00:34:33.607Z,3.73
2019-02-25T00:35:33.597Z,3.60
2019-02-25T00:36:33.585Z,3.60
2019-02-25T00:37:33.573Z,3.68
2019-02-25T00:38:33.561Z,3.63
2019-02-25T00:39:33.549Z,3.60
2019-02-25T00:40:33.539Z,3.63
2019-02-25T00:41:33.528Z,3.60
2019-02-25T00:42:33.514Z,3.63
2019-02-25T00:43:33.503Z,3.63
2019-02-25T00:44:33.496Z,3.55
2019-02-25T00:45:33.483Z,3.58
2019-02-25T00:46:33.472Z,3.58
2019-02-25T00:47:33.459Z,3.58
2019-02-25T00:48:33.446Z,3.50
2019-02-25T00:49:33.436Z,3.51
2019-02-25T00:50:33.426Z,3.63
2019-02-25T00:51:33.421Z,3.58
2019-02-25T00:52:33.403Z,3.62
2019-02-25T00:53:33.391Z,3.63
2019-02-25T00:54:33.382Z,3.60
2019-02-25T00:55:33.386Z,3.58
2019-02-25T00:56:33.362Z,3.68
2019-02-25T00:57:33.349Z,3.63
2019-02-25T00:58:33.338Z,3.59
2019-02-25T00:59:33.323Z,3.60
2019-02-25T01:00:33.315Z,3.56
2019-02-25T01:01:33.302Z,3.59
2019-02-25T01:02:33.289Z,3.59
2019-02-25T01:03:33.278Z,3.60
2019-02-25T01:04:33.266Z,3.63
2019-02-25T01:05:33.255Z,3.60
2019-02-25T01:06:33.241Z,3.62
2019-02-25T01:07:33.230Z,3.53
2019-02-25T01:08:33.269Z,3.58
2019-02-25T01:09:33.212Z,3.59
2019-02-25T01:10:33.200Z,3.65
2019-02-25T01:11:33.189Z,3.59
2019-02-25T01:12:33.175Z,3.62
2019-02-25T01:13:33.165Z,3.59
2019-02-25T01:14:33.150Z,3.60
2019-02-25T01:15:33.142Z,3.66
2019-02-25T01:16:33.131Z,3.59
2019-02-25T01:17:33.117Z,3.59
2019-02-25T01:18:33.108Z,3.63
2019-02-25T01:19:33.135Z,3.56
2019-02-25T01:20:33.083Z,3.59
2019-02-25T01:21:33.074Z,3.62
2019-02-25T01:22:33.062Z,3.66
2019-02-25T01:23:33.055Z,3.59
2019-02-25T01:24:33.039Z,3.59
2019-02-25T01:25:33.036Z,3.63
2019-02-25T01:26:33.016Z,3.53
2019-02-25T01:27:33.005Z,3.60
2019-02-25T01:28:32.994Z,3.65
2019-02-25T01:29:32.982Z,3.53
2019-02-25T01:30:32.968Z,3.51
2019-02-25T01:31:32.959Z,3.58
2019-02-25T01:32:32.948Z,3.58
2019-02-25T01:33:32.938Z,3.51
2019-02-25T01:34:32.926Z,3.58
2019-02-25T01:35:32.912Z,3.62
2019-02-25T01:36:32.901Z,3.62
2019-02-25T01:37:32.897Z,3.62
2019-02-25T01:38:32.879Z,3.58
2019-02-25T01:39:32.866Z,3.59
2019-02-25T01:40:32.854Z,3.50
2019-02-25T01:41:32.849Z,3.55
2019-02-25T01:42:32.833Z,3.55
2019-02-25T01:43:32.822Z,3.50
2019-02-25T01:44:32.812Z,3.47
2019-02-25T01:45:32.797Z,3.40
2019-02-25T01:46:32.788Z,3.42
2019-02-25T01:47:32.775Z,3.45
2019-02-25T01:48:32.765Z,3.40
2019-02-25T01:49:32.753Z,3.40
2019-02-25T01:50:32.742Z,3.28
2019-02-25T01:51:32.730Z,3.36
2019-02-25T01:52:32.717Z,3.36
2019-02-25T01:53:32.726Z,3.28
2019-02-25T01:54:32.705Z,3.31
2019-02-25T01:55:32.683Z,3.29
2019-02-25T01:56:32.673Z,3.31
2019-02-25T01:57:32.659Z,3.32
2019-02-25T01:58:32.649Z,3.32
2019-02-25T01:59:32.635Z,3.42
2019-02-25T02:00:32.632Z,3.37
2019-02-25T02:01:32.614Z,3.36
2019-02-25T02:02:32.599Z,3.50
2019-02-25T02:03:32.588Z,3.32
2019-02-25T02:04:32.578Z,3.40
2019-02-25T02:05:32.569Z,3.45
2019-02-25T02:06:32.555Z,3.40
2019-02-25T02:07:32.543Z,3.44
2019-02-25T02:08:32.532Z,3.37
2019-02-25T02:09:32.518Z,3.40
2019-02-25T02:10:32.513Z,3.40
2019-02-25T02:11:32.500Z,3.44
2019-02-25T02:12:32.484Z,3.45
2019-02-25T02:13:32.474Z,3.51
2019-02-25T02:14:32.462Z,3.51
2019-02-25T02:15:32.450Z,3.45
2019-02-25T02:16:32.438Z,3.51
2019-02-25T02:17:32.434Z,3.51
2019-02-25T02:18:32.414Z,3.55
2019-02-25T02:19:32.403Z,3.56
2019-02-25T02:20:32.395Z,3.51
2019-02-25T02:21:32.381Z,3.53
2019-02-25T02:22:32.367Z,3.53
2019-02-25T02:23:32.360Z,3.36
2019-02-25T02:24:32.349Z,3.40
2019-02-25T02:25:32.336Z,3.44
2019-02-25T02:26:32.323Z,3.42
2019-02-25T02:27:32.311Z,3.41
2019-02-25T02:28:32.304Z,3.42
2019-02-25T02:29:32.288Z,3.44
2019-02-25T02:30:32.276Z,3.44
2019-02-25T02:31:32.271Z,3.41
2019-02-25T02:32:32.267Z,3.37
2019-02-25T02:33:32.244Z,3.40
2019-02-25T02:34:32.233Z,3.40
2019-02-25T02:35:32.220Z,3.44
2019-02-25T02:36:32.215Z,3.42
2019-02-25T02:37:32.196Z,3.45
2019-02-25T02:38:32.186Z,3.40
2019-02-25T02:39:32.183Z,3.42
2019-02-25T02:40:32.162Z,3.40
2019-02-25T02:41:32.152Z,3.37
2019-02-25T02:42:32.145Z,3.37
2019-02-25T02:43:32.128Z,3.42
2019-02-25T02:44:32.117Z,3.23
2019-02-25T02:45:32.106Z,3.36
2019-02-25T02:46:32.094Z,3.23
2019-02-25T02:47:32.085Z,3.29
2019-02-25T02:48:32.074Z,3.16
2019-02-25T02:49:32.058Z,3.18
2019-02-25T02:50:32.053Z,3.16
2019-02-25T02:51:32.038Z,3.14
2019-02-25T02:52:32.027Z,3.14
2019-02-25T02:53:32.011Z,3.13
2019-02-25T02:54:32.001Z,3.23
2019-02-25T02:55:31.991Z,3.22
2019-02-25T02:56:31.978Z,3.21
2019-02-25T02:57:31.967Z,3.18
2019-02-25T02:58:31.955Z,3.13
2019-02-25T02:59:31.946Z,3.23
2019-02-25T03:00:31.935Z,3.18
2019-02-25T03:01:31.921Z,3.14
2019-02-25T03:02:31.916Z,3.21
2019-02-25T03:03:31.897Z,3.14
2019-02-25T03:04:31.886Z,3.18
2019-02-25T03:05:31.874Z,3.16
2019-02-25T03:06:31.863Z,3.08
2019-02-25T03:07:31.851Z,3.14
2019-02-25T03:08:31.844Z,3.13
2019-02-25T03:09:31.826Z,3.11
2019-02-25T03:10:31.813Z,3.11
2019-02-25T03:11:31.806Z,3.04
2019-02-25T03:12:31.794Z,3.11
2019-02-25T03:13:31.781Z,3.11
2019-02-25T03:14:31.770Z,3.03
2019-02-25T03:15:31.758Z,3.04
2019-02-25T03:16:31.747Z,3.07
2019-02-25T03:17:31.737Z,3.11
2019-02-25T03:18:31.722Z,3.21
2019-02-25T03:19:31.712Z,3.08
2019-02-25T03:20:31.702Z,3.18
2019-02-25T03:21:31.688Z,3.10
2019-02-25T03:22:31.678Z,3.13
2019-02-25T03:23:31.666Z,3.11
2019-02-25T03:24:31.653Z,3.13
2019-02-25T03:25:31.642Z,3.10
2019-02-25T03:26:31.629Z,3.11
2019-02-25T03:27:31.619Z,3.13
2019-02-25T03:28:31.607Z,3.07
2019-02-25T03:29:31.594Z,3.11
2019-02-25T03:30:31.584Z,3.13
2019-02-25T03:31:31.592Z,3.08
2019-02-25T03:32:31.562Z,3.08
2019-02-25T03:33:31.551Z,3.10
2019-02-25T03:34:31.546Z,3.08
2019-02-25T03:35:31.525Z,3.08
2019-02-25T03:36:31.513Z,3.07
2019-02-25T03:37:31.502Z,3.05
2019-02-25T03:38:31.491Z,2.97
2019-02-25T03:39:31.480Z,3.08
2019-02-25T03:40:31.469Z,2.98
2019-02-25T03:41:31.458Z,2.95
2019-02-25T03:42:31.447Z,2.95
2019-02-25T03:43:31.434Z,2.93
2019-02-25T03:44:31.423Z,2.93
2019-02-25T03:45:31.411Z,2.95
2019-02-25T03:46:31.397Z,2.98
2019-02-25T03:47:31.386Z,2.92
2019-02-25T03:48:31.379Z,2.92
2019-02-25T03:49:31.366Z,2.97
2019-02-25T03:50:31.351Z,2.89
2019-02-25T03:51:31.345Z,2.92
2019-02-25T03:52:31.329Z,2.92
2019-02-25T03:53:31.316Z,2.87
2019-02-25T03:54:31.317Z,2.92
2019-02-25T03:55:31.295Z,2.87
2019-02-25T03:56:31.286Z,2.80
2019-02-25T03:57:31.271Z,2.83
2019-02-25T03:58:31.257Z,2.79
2019-02-25T03:59:31.247Z,2.85
2019-02-25T04:00:31.234Z,2.82
2019-02-25T04:01:31.223Z,2.80
2019-02-25T04:02:31.211Z,2.80
2019-02-25T04:03:31.199Z,2.85
2019-02-25T04:04:31.186Z,2.86
2019-02-25T04:05:31.176Z,2.86
2019-02-25T04:06:31.165Z,2.85
2019-02-25T04:07:31.152Z,2.83
2019-02-25T04:08:31.143Z,2.87
2019-02-25T04:09:31.130Z,2.86
2019-02-25T04:10:31.134Z,2.90
2019-02-25T04:11:31.110Z,2.90
2019-02-25T04:12:31.092Z,2.95
2019-02-25T04:13:31.083Z,2.93
2019-02-25T04:14:31.070Z,2.90
2019-02-25T04:15:31.055Z,2.86
2019-02-25T04:16:31.046Z,2.83
2019-02-25T04:17:31.036Z,2.86
2019-02-25T04:18:38.011Z,2.83
2019-02-25T04:19:31.011Z,2.90
2019-02-25T04:20:30.996Z,2.90
2019-02-25T04:21:30.994Z,2.85
2019-02-25T04:22:30.972Z,2.93
2019-02-25T04:23:30.963Z,2.89
2019-02-25T04:24:30.947Z,2.85
2019-02-25T04:25:30.936Z,2.90
2019-02-25T04:26:30.923Z,2.89
2019-02-25T04:27:30.912Z,2.87
2019-02-25T04:28:30.902Z,2.85
2019-02-25T04:29:30.893Z,2.85
2019-02-25T04:30:30.878Z,2.80
2019-02-25T04:31:30.865Z,2.83
2019-02-25T04:32:30.856Z,2.72
2019-02-25T04:33:30.849Z,2.71
2019-02-25T04:34:30.834Z,2.74
2019-02-25T04:35:30.819Z,2.75
2019-02-25T04:36:30.807Z,2.77
2019-02-25T04:37:30.795Z,2.74
2019-02-25T04:38:30.781Z,2.80
2019-02-25T04:39:30.771Z,2.83
2019-02-25T04:40:30.767Z,2.82
2019-02-25T04:41:30.746Z,2.82
2019-02-25T04:42:30.732Z,2.82
2019-02-25T04:43:30.720Z,2.82
2019-02-25T04:44:30.716Z,2.85
2019-02-25T04:45:30.700Z,2.83
2019-02-25T04:46:30.685Z,2.83
2019-02-25T04:47:30.675Z,2.85
2019-02-25T04:48:30.667Z,2.82
2019-02-25T04:49:30.653Z,2.93
2019-02-25T04:50:30.640Z,2.85
2019-02-25T04:51:30.629Z,2.86
2019-02-25T04:52:30.611Z,2.89
2019-02-25T04:53:30.603Z,2.85
2019-02-25T04:54:30.592Z,2.86
2019-02-25T04:55:30.580Z,2.85
2019-02-25T04:56:30.571Z,2.87
2019-02-25T04:57:30.559Z,2.82
2019-02-25T04:58:30.546Z,2.86
2019-02-25T04:59:30.531Z,2.83
2019-02-25T05:00:30.525Z,2.77
2019-02-25T05:01:30.514Z,2.79
2019-02-25T05:02:30.496Z,2.77
2019-02-25T05:03:30.486Z,2.75
2019-02-25T05:04:30.474Z,2.83
2019-02-25T05:05:30.463Z,2.80
2019-02-25T05:06:30.451Z,2.85
2019-02-25T05:07:30.441Z,2.79
2019-02-25T05:08:30.426Z,2.82
2019-02-25T05:09:30.416Z,2.85
2019-02-25T05:10:30.402Z,2.82
2019-02-25T05:11:30.392Z,2.85
2019-02-25T05:12:30.389Z,2.80
2019-02-25T05:13:30.365Z,2.83
2019-02-25T05:14:30.356Z,2.74
2019-02-25T05:15:30.352Z,2.75
2019-02-25T05:16:30.330Z,2.77
2019-02-25T05:17:30.321Z,2.79
2019-02-25T05:18:30.306Z,2.80
2019-02-25T05:19:30.300Z,2.80
2019-02-25T05:20:30.282Z,2.75
2019-02-25T05:21:30.274Z,2.72
2019-02-25T05:22:30.261Z,2.71
2019-02-25T05:23:30.247Z,2.72
2019-02-25T05:24:30.238Z,2.75
2019-02-25T05:25:30.222Z,2.71
2019-02-25T05:26:30.215Z,2.72
2019-02-25T05:27:30.197Z,2.71
2019-02-25T05:28:30.189Z,2.64
2019-02-25T05:29:30.176Z,2.62
2019-02-25T05:30:30.163Z,2.65
2019-02-25T05:31:30.150Z,2.64
2019-02-25T05:32:30.141Z,2.65
2019-02-25T05:33:30.129Z,2.57
2019-02-25T05:34:30.120Z,2.57
2019-02-25T05:35:30.101Z,2.60
2019-02-25T05:36:30.088Z,2.62
2019-02-25T05:37:30.078Z,2.61
2019-02-25T05:38:30.063Z,2.64
2019-02-25T05:39:30.056Z,2.68
2019-02-25T05:40:30.044Z,2.65
2019-02-25T05:41:30.036Z,2.50
2019-02-25T05:42:30.016Z,2.54
2019-02-25T05:43:30.005Z,2.53
2019-02-25T05:44:29.991Z,2.64
2019-02-25T05:45:29.981Z,2.51
2019-02-25T05:46:29.966Z,2.56
2019-02-25T05:47:29.955Z,2.56
2019-02-25T05:48:29.963Z,2.54
2019-02-25T05:49:29.933Z,2.54
2019-02-25T05:50:29.918Z,2.53
2019-02-25T05:51:29.903Z,2.51
2019-02-25T05:52:29.895Z,2.47
2019-02-25T05:53:29.942Z,2.46
2019-02-25T05:54:29.886Z,2.43
2019-02-25T05:55:29.862Z,2.54
2019-02-25T05:56:29.849Z,2.53
2019-02-25T05:57:29.837Z,2.56
2019-02-25T05:58:29.823Z,2.56
2019-02-25T05:59:29.815Z,2.62
2019-02-25T06:00:29.800Z,2.67
2019-02-25T06:01:29.809Z,2.51
2019-02-25T06:02:29.776Z,2.60
2019-02-25T06:03:29.763Z,2.64
2019-02-25T06:04:29.752Z,2.50
2019-02-25T06:05:29.744Z,2.50
2019-02-25T06:06:29.731Z,2.51
2019-02-25T06:07:29.717Z,2.60
2019-02-25T06:08:29.702Z,2.64
2019-02-25T06:09:29.692Z,2.64
2019-02-25T06:10:29.686Z,2.67
2019-02-25T06:11:29.668Z,2.65
2019-02-25T06:12:29.654Z,2.61
2019-02-25T06:13:29.640Z,2.67
2019-02-25T06:14:29.630Z,2.61
2019-02-25T06:15:29.617Z,2.60
2019-02-25T06:16:29.607Z,2.62
2019-02-25T06:17:29.596Z,2.79
2019-02-25T06:18:29.586Z,2.71
2019-02-25T06:19:29.568Z,2.74
2019-02-25T06:20:29.564Z,2.69
2019-02-25T06:21:29.549Z,2.72
2019-02-25T06:22:29.537Z,2.77
2019-02-25T06:23:29.523Z,2.72
2019-02-25T06:24:29.513Z,2.69
2019-02-25T06:25:29.499Z,2.80
2019-02-25T06:26:29.489Z,2.71
2019-02-25T06:27:30.897Z,2.75
2019-02-25T06:28:29.462Z,2.77
2019-02-25T06:29:29.453Z,2.74
2019-02-25T06:30:29.439Z,2.79
2019-02-25T06:31:29.426Z,2.79
2019-02-25T06:32:29.417Z,2.74
2019-02-25T06:33:29.404Z,2.83
2019-02-25T06:34:29.393Z,2.69
2019-02-25T06:35:29.377Z,2.77
2019-02-25T06:36:29.373Z,2.72
2019-02-25T06:37:29.380Z,2.77
2019-02-25T06:38:29.349Z,2.77
2019-02-25T06:39:29.329Z,2.72
2019-02-25T06:40:29.318Z,2.72
2019-02-25T06:41:29.314Z,2.75
2019-02-25T06:42:29.295Z,2.85
2019-02-25T06:43:29.285Z,2.79
2019-02-25T06:44:29.271Z,2.82
2019-02-25T06:45:31.041Z,2.83
2019-02-25T06:46:29.248Z,2.86
2019-02-25T06:47:29.237Z,2.86
2019-02-25T06:48:29.224Z,3.00
2019-02-25T06:49:29.207Z,2.93
2019-02-25T06:50:29.198Z,3.00
2019-02-25T06:51:29.186Z,3.03
2019-02-25T06:52:29.180Z,2.95
2019-02-25T06:53:29.167Z,2.97
2019-02-25T06:54:29.154Z,2.98
2019-02-25T06:55:29.149Z,2.93
2019-02-25T06:56:29.133Z,2.92
2019-02-25T06:57:29.117Z,3.04
2019-02-25T06:58:29.104Z,2.92
2019-02-25T06:59:29.093Z,3.04
2019-02-25T07:00:29.079Z,2.95
2019-02-25T07:01:29.070Z,2.97
2019-02-25T07:02:29.127Z,2.97
2019-02-25T07:03:29.051Z,2.95
2019-02-25T07:04:29.034Z,2.90
2019-02-25T07:05:29.023Z,3.01
2019-02-25T07:06:29.014Z,3.03
2019-02-25T07:07:28.997Z,2.98
2019-02-25T07:08:28.991Z,3.01
2019-02-25T07:09:28.979Z,2.97
2019-02-25T07:10:28.963Z,2.87
2019-02-25T07:11:28.952Z,2.93
2019-02-25T07:12:28.939Z,2.95
2019-02-25T07:13:28.929Z,2.92
2019-02-25T07:14:28.915Z,2.97
2019-02-25T07:15:28.914Z,3.01
2019-02-25T07:16:28.894Z,3.00
2019-02-25T07:17:28.879Z,3.00
2019-02-25T07:18:28.932Z,3.08
2019-02-25T07:19:28.858Z,3.10
2019-02-25T07:20:28.847Z,3.21
2019-02-25T07:21:28.847Z,3.21
2019-02-25T07:22:28.823Z,3.18
2019-02-25T07:23:28.805Z,3.21
2019-02-25T07:24:28.799Z,3.28
2019-02-25T07:25:28.787Z,3.26
2019-02-25T07:26:28.773Z,3.25
2019-02-25T07:27:28.762Z,3.28
2019-02-25T07:28:28.750Z,3.26
2019-02-25T07:29:28.753Z,3.31
2019-02-25T07:30:28.728Z,3.31
2019-02-25T07:31:28.720Z,3.36
2019-02-25T07:32:30.213Z,3.32
2019-02-25T07:33:28.692Z,3.37
2019-02-25T07:34:28.679Z,3.36
2019-02-25T07:35:28.669Z,3.40
2019-02-25T07:36:28.655Z,3.41
2019-02-25T07:37:28.651Z,3.36
2019-02-25T07:38:28.637Z,3.40
2019-02-25T07:39:28.624Z,3.41
2019-02-25T07:40:28.618Z,3.41
2019-02-25T07:41:28.601Z,3.36
2019-02-25T07:42:28.589Z,3.40
2019-02-25T07:43:28.577Z,3.51
2019-02-25T07:44:28.572Z,3.53
2019-02-25T07:45:28.553Z,3.55
2019-02-25T07:46:28.543Z,3.55
2019-02-25T07:47:28.532Z,3.62
2019-02-25T07:48:28.520Z,3.63
2019-02-25T07:49:28.506Z,3.58
2019-02-25T07:50:28.494Z,3.73
2019-02-25T07:51:28.484Z,3.73
2019-02-25T07:52:28.472Z,3.73
2019-02-25T07:53:28.467Z,3.76
2019-02-25T07:54:28.454Z,3.77
2019-02-25T07:55:28.440Z,3.74
2019-02-25T07:56:28.427Z,3.76
2019-02-25T07:57:28.417Z,3.73
2019-02-25T07:58:28.402Z,3.73
2019-02-25T07:59:28.393Z,3.69
2019-02-25T08:00:28.380Z,3.73
2019-02-25T08:01:28.371Z,3.74
2019-02-25T08:02:28.360Z,3.76
2019-02-25T08:03:28.351Z,3.76
2019-02-25T08:04:28.335Z,3.78
2019-02-25T08:05:28.327Z,3.81
2019-02-25T08:06:28.317Z,3.83
2019-02-25T08:07:28.301Z,3.76
2019-02-25T08:08:28.291Z,3.77
2019-02-25T08:09:28.281Z,3.78
2019-02-25T08:10:28.273Z,3.83
2019-02-25T08:11:28.255Z,3.83
2019-02-25T08:12:28.241Z,3.84
2019-02-25T08:13:28.234Z,3.80
2019-02-25T08:14:28.227Z,3.80
2019-02-25T08:15:28.208Z,3.91
2019-02-25T08:16:28.204Z,3.86
2019-02-25T08:17:28.187Z,3.91
2019-02-25T08:18:28.177Z,3.98
2019-02-25T08:19:28.164Z,3.95
2019-02-25T08:20:28.154Z,4.02
2019-02-25T08:21:28.139Z,4.01
2019-02-25T08:22:28.131Z,4.14
2019-02-25T08:23:28.118Z,4.14
2019-02-25T08:24:30.527Z,4.23
2019-02-25T08:25:28.099Z,4.20
2019-02-25T08:26:28.085Z,4.23
2019-02-25T08:27:28.073Z,4.28
2019-02-25T08:28:28.063Z,4.24
2019-02-25T08:29:28.060Z,4.30
2019-02-25T08:30:28.039Z,4.24
2019-02-25T08:31:28.030Z,4.28
2019-02-25T08:32:28.017Z,4.30
2019-02-25T08:33:28.009Z,4.35
2019-02-25T08:34:27.991Z,4.31
2019-02-25T08:35:27.985Z,4.40
2019-02-25T08:36:27.976Z,4.42
2019-02-25T08:37:27.961Z,4.52
2019-02-25T08:38:27.949Z,4.52
2019-02-25T08:39:27.939Z,4.48
2019-02-25T08:40:27.930Z,4.63
2019-02-25T08:41:27.917Z,4.53
2019-02-25T08:42:27.902Z,4.62
2019-02-25T08:43:27.905Z,4.59
2019-02-25T08:44:27.886Z,4.67
2019-02-25T08:45:27.881Z,4.63
2019-02-25T08:46:27.864Z,4.63
2019-02-25T08:47:27.904Z,4.71
2019-02-25T08:48:27.839Z,4.74
2019-02-25T08:49:27.830Z,4.74
2019-02-25T08:50:27.819Z,4.78
2019-02-25T08:51:27.918Z,4.87
2019-02-25T08:52:27.796Z,4.94
2019-02-25T08:53:29.832Z,4.90
2019-02-25T08:54:27.778Z,5.04
2019-02-25T08:55:27.770Z,4.99
2019-02-25T08:56:27.753Z,4.97
2019-02-25T08:57:27.745Z,5.07
2019-02-25T08:58:27.749Z,5.04
2019-02-25T08:59:27.720Z,5.04
2019-02-25T09:00:27.711Z,5.04
2019-02-25T09:01:27.701Z,5.08
2019-02-25T09:02:27.686Z,5.05
2019-02-25T09:03:27.678Z,5.20
2019-02-25T09:04:27.670Z,5.18
2019-02-25T09:05:27.655Z,5.30
2019-02-25T09:06:27.645Z,5.32
2019-02-25T09:07:27.633Z,5.32
2019-02-25T09:08:27.626Z,5.43
2019-02-25T09:09:27.630Z,5.44
2019-02-25T09:10:27.604Z,5.46
2019-02-25T09:11:27.593Z,5.59
2019-02-25T09:12:27.580Z,5.51
2019-02-25T09:13:27.703Z,5.59
2019-02-25T09:14:27.666Z,5.62
2019-02-25T09:15:27.707Z,5.65
2019-02-25T09:16:27.549Z,5.61
2019-02-25T09:17:27.532Z,5.68
2019-02-25T09:18:27.857Z,5.66
2019-02-25T09:19:27.685Z,5.69
2019-02-25T09:20:27.500Z,5.75
2019-02-25T09:21:31.869Z,5.75
2019-02-25T09:22:27.491Z,5.82
2019-02-25T09:23:27.467Z,5.86
2019-02-25T09:24:27.528Z,5.86
2019-02-25T09:25:27.480Z,5.82
2019-02-25T09:26:27.441Z,5.83
2019-02-25T09:27:27.430Z,5.90
2019-02-25T09:28:27.700Z,5.93
2019-02-25T09:29:27.475Z,5.86
2019-02-25T09:30:27.397Z,5.90
2019-02-25T09:31:27.415Z,5.90
2019-02-25T09:32:27.379Z,6.01
2019-02-25T09:33:27.633Z,6.02
2019-02-25T09:34:27.392Z,6.04
2019-02-25T09:35:27.480Z,6.20
2019-02-25T09:36:27.391Z,6.14
2019-02-25T09:37:27.340Z,6.22
2019-02-25T09:38:27.321Z,6.19
2019-02-25T09:39:27.316Z,6.24
2019-02-25T09:40:27.301Z,6.31
2019-02-25T09:41:29.918Z,6.26
2019-02-25T09:42:27.275Z,6.35
2019-02-25T09:43:27.326Z,6.35
2019-02-25T09:44:27.255Z,6.49
2019-02-25T09:45:27.248Z,6.38
2019-02-25T09:46:27.249Z,6.57
2019-02-25T09:47:27.233Z,6.57
2019-02-25T09:48:27.219Z,6.63
2019-02-25T09:49:27.207Z,6.70
2019-02-25T09:50:27.200Z,6.74
2019-02-25T09:51:27.188Z,6.79
2019-02-25T09:52:27.177Z,6.82
2019-02-25T09:53:27.169Z,6.85
2019-02-25T09:54:27.159Z,6.87
2019-02-25T09:55:27.161Z,6.93
2019-02-25T09:56:27.140Z,6.96
2019-02-25T09:57:27.136Z,7.02
2019-02-25T09:58:27.120Z,7.05
2019-02-25T09:59:27.112Z,7.05
2019-02-25T10:00:27.101Z,7.03
2019-02-25T10:01:27.094Z,7.10
2019-02-25T10:02:27.202Z,7.15
2019-02-25T10:03:27.075Z,7.18
2019-02-25T10:04:27.065Z,7.17
2019-02-25T10:05:27.055Z,7.18
2019-02-25T10:06:27.046Z,7.20
2019-02-25T10:07:27.035Z,7.28
2019-02-25T10:08:27.027Z,7.28
2019-02-25T10:09:29.880Z,7.35
2019-02-25T10:10:27.007Z,7.32
2019-02-25T10:11:27.951Z,7.42
2019-02-25T10:12:26.995Z,7.40
2019-02-25T10:13:26.987Z,7.54
2019-02-25T10:14:26.974Z,7.53
2019-02-25T10:15:26.961Z,7.47
2019-02-25T10:16:26.961Z,7.58
2019-02-25T10:17:26.950Z,7.66
2019-02-25T10:18:26.933Z,7.72
2019-02-25T10:19:26.926Z,7.75
2019-02-25T10:20:26.921Z,7.80
2019-02-25T10:21:26.907Z,7.80
2019-02-25T10:22:26.900Z,7.97
2019-02-25T10:23:26.888Z,7.91
2019-02-25T10:24:26.879Z,7.95
2019-02-25T10:25:26.866Z,8.05
2019-02-25T10:26:26.862Z,8.12
2019-02-25T10:27:26.886Z,8.16
2019-02-25T10:28:26.855Z,8.18
2019-02-25T10:29:26.835Z,8.23
2019-02-25T10:30:26.829Z,8.41
2019-02-25T10:31:26.822Z,8.41
2019-02-25T10:32:27.954Z,8.41
2019-02-25T10:33:26.801Z,8.49
2019-02-25T10:34:26.792Z,8.52
2019-02-25T10:35:27.285Z,8.55
2019-02-25T10:36:26.775Z,8.52
2019-02-25T10:37:26.765Z,8.55
2019-02-25T10:38:26.754Z,8.70
2019-02-25T10:39:26.743Z,8.63
2019-02-25T10:40:27.632Z,8.69
2019-02-25T10:41:27.843Z,8.78
2019-02-25T10:42:27.528Z,8.76
2019-02-25T10:43:28.097Z,8.81
2019-02-25T10:44:26.719Z,8.78
2019-02-25T10:45:26.698Z,8.87
2019-02-25T10:46:26.687Z,9.00
2019-02-25T10:47:27.135Z,9.02
2019-02-25T10:48:26.672Z,9.11
2019-02-25T10:49:28.457Z,9.04
2019-02-25T10:50:26.657Z,9.16
2019-02-25T10:51:26.748Z,9.25
2019-02-25T10:52:26.642Z,9.16
2019-02-25T10:53:26.645Z,9.26
2019-02-25T10:54:26.640Z,9.37
2019-02-25T10:55:26.616Z,9.32
2019-02-25T10:56:26.614Z,9.40
2019-02-25T10:57:29.243Z,9.43
2019-02-25T10:58:27.471Z,9.54
2019-02-25T10:59:26.581Z,9.58
2019-02-25T11:00:26.586Z,9.64
2019-02-25T11:01:26.563Z,9.66
2019-02-25T11:02:26.747Z,9.72
2019-02-25T11:03:26.547Z,9.72
2019-02-25T11:04:26.545Z,9.80
2019-02-25T11:05:29.936Z,9.79
2019-02-25T11:06:27.393Z,9.84
2019-02-25T11:07:26.538Z,9.86
2019-02-25T11:08:26.542Z,10.04
2019-02-25T11:09:26.520Z,10.07
2019-02-25T11:10:26.498Z,10.16
2019-02-25T11:11:27.201Z,10.17
2019-02-25T11:12:27.972Z,10.13
2019-02-25T11:13:27.545Z,10.30
2019-02-25T11:14:26.468Z,10.31
2019-02-25T11:15:26.454Z,10.38
2019-02-25T11:16:26.459Z,10.48
2019-02-25T11:17:26.439Z,10.53
2019-02-25T11:18:28.319Z,10.54
2019-02-25T11:19:28.241Z,10.67
2019-02-25T11:20:27.348Z,10.76
2019-02-25T11:21:26.424Z,10.75
2019-02-25T11:22:26.405Z,10.86
2019-02-25T11:23:26.633Z,10.89
2019-02-25T11:24:26.396Z,10.87
2019-02-25T11:25:27.956Z,10.93
2019-02-25T11:26:28.374Z,10.99
2019-02-25T11:27:26.369Z,11.00
2019-02-25T11:28:26.367Z,11.07
2019-02-25T11:29:26.353Z,11.05
2019-02-25T11:30:26.346Z,11.12
2019-02-25T11:31:27.373Z,11.18
2019-02-25T11:32:27.823Z,11.17
2019-02-25T11:33:27.885Z,11.19
2019-02-25T11:34:26.320Z,11.27
2019-02-25T11:35:26.543Z,11.25
2019-02-25T11:36:26.382Z,11.18
2019-02-25T11:37:27.053Z,11.30
2019-02-25T11:38:28.123Z,11.36
2019-02-25T11:39:27.466Z,11.37
2019-02-25T11:40:28.403Z,11.32
2019-02-25T11:41:26.284Z,11.35
2019-02-25T11:42:26.330Z,11.29
2019-02-25T11:43:26.518Z,11.35
2019-02-25T11:44:30.910Z,11.41
2019-02-25T11:45:26.324Z,11.41
2019-02-25T11:46:26.305Z,11.48
2019-02-25T11:47:26.236Z,11.48
2019-02-25T11:48:26.244Z,11.45
2019-02-25T11:49:26.221Z,11.59
2019-02-25T11:50:26.229Z,11.57
2019-02-25T11:51:27.302Z,11.55
2019-02-25T11:52:26.202Z,11.62
2019-02-25T11:53:26.196Z,11.70
2019-02-25T11:54:26.188Z,11.70
2019-02-25T11:55:26.191Z,11.73
2019-02-25T11:56:26.175Z,11.77
2019-02-25T11:57:26.172Z,11.87
2019-02-25T11:58:26.163Z,11.88
2019-02-25T11:59:26.157Z,11.87
2019-02-25T12:00:26.152Z,11.90
2019-02-25T12:01:26.145Z,11.94
2019-02-25T12:02:26.230Z,11.95
2019-02-25T12:03:26.294Z,12.00
2019-02-25T12:04:26.130Z,11.99
2019-02-25T12:05:26.124Z,12.15
2019-02-25T12:06:26.119Z,12.13
2019-02-25T12:07:26.147Z,12.13
2019-02-25T12:08:26.106Z,12.28
2019-02-25T12:09:26.101Z,12.28
2019-02-25T12:10:26.095Z,12.27
2019-02-25T12:11:26.086Z,12.39
2019-02-25T12:12:26.083Z,12.36
2019-02-25T12:13:26.078Z,12.45
2019-02-25T12:14:26.073Z,12.50
2019-02-25T12:15:26.068Z,12.60
2019-02-25T12:16:26.060Z,12.60
2019-02-25T12:17:26.055Z,12.72
2019-02-25T12:18:26.050Z,12.67
2019-02-25T12:19:26.044Z,12.80
2019-02-25T12:20:26.040Z,12.86
2019-02-25T12:21:26.033Z,12.83
2019-02-25T12:22:26.039Z,12.82
2019-02-25T12:23:26.034Z,12.90
2019-02-25T12:24:26.015Z,12.93
2019-02-25T12:25:26.022Z,12.98
2019-02-25T12:26:26.012Z,12.94
2019-02-25T12:27:26.002Z,12.95
2019-02-25T12:28:25.995Z,12.93
2019-02-25T12:29:26.036Z,13.01
2019-02-25T12:30:25.986Z,13.05
2019-02-25T12:31:25.979Z,13.03
2019-02-25T12:32:25.972Z,13.15
2019-02-25T12:33:25.967Z,13.13
2019-02-25T12:34:25.965Z,13.19
2019-02-25T12:35:25.955Z,13.09
2019-02-25T12:36:25.953Z,13.20
2019-02-25T12:37:25.948Z,13.19
2019-02-25T12:38:25.945Z,13.19
2019-02-25T12:39:25.939Z,13.25
2019-02-25T12:40:25.957Z,13.30
2019-02-25T12:41:27.371Z,13.28
2019-02-25T12:42:25.955Z,13.35
2019-02-25T12:43:25.925Z,13.38
2019-02-25T12:44:25.923Z,13.60
2019-02-25T12:45:25.916Z,13.70
2019-02-25T12:46:25.912Z,13.75
2019-02-25T12:47:25.896Z,13.79
2019-02-25T12:48:25.890Z,13.83
2019-02-25T12:49:25.899Z,13.89
2019-02-25T12:50:25.884Z,13.89
2019-02-25T12:51:25.890Z,13.90
2019-02-25T12:52:25.884Z,13.95
2019-02-25T12:53:25.874Z,13.99
2019-02-25T12:54:25.870Z,14.05
2019-02-25T12:55:25.863Z,14.10
2019-02-25T12:56:25.861Z,14.10
2019-02-25T12:57:25.860Z,14.12
2019-02-25T12:58:25.850Z,14.17
2019-02-25T12:59:25.843Z,14.32
2019-02-25T13:00:25.850Z,14.36
2019-02-25T13:01:25.835Z,14.40
2019-02-25T13:02:25.831Z,14.36
2019-02-25T13:03:25.830Z,14.41
2019-02-25T13:04:25.823Z,14.45
2019-02-25T13:05:25.819Z,14.50
2019-02-25T13:06:25.817Z,14.51
2019-02-25T13:07:25.812Z,14.50
2019-02-25T13:08:25.805Z,14.50
2019-02-25T13:09:25.800Z,14.45
2019-02-25T13:10:25.796Z,14.48
2019-02-25T13:11:25.795Z,14.51
2019-02-25T13:12:25.787Z,14.54
2019-02-25T13:13:25.786Z,14.66
2019-02-25T13:14:25.779Z,14.63